createdAt,value
2018-04-28T00:08:33.087Z,99.99
2018-04-28T00:18:33.062Z,99.99
2018-04-28T00:28:33.035Z,99.99
2018-04-28T00:38:33.080Z,99.99
2018-04-28T00:48:33.038Z,99.99
2018-04-28T00:58:33.068Z,99.99
2018-04-28T01:08:33.073Z,99.99
2018-04-28T01:18:33.046Z,99.99
2018-04-28T01:28:33.031Z,99.99
2018-04-28T01:38:33.027Z,99.99
2018-04-28T01:48:33.060Z,99.99
2018-04-28T01:58:33.058Z,99.99
2018-04-28T02:08:33.060Z,99.99
2018-04-28T02:18:33.073Z,99.99
2018-04-28T02:28:33.057Z,99.99
2018-04-28T02:38:33.107Z,99.99
2018-04-28T02:48:33.067Z,99.99
2018-04-28T02:58:33.090Z,99.99
2018-04-28T03:08:33.121Z,99.99
2018-04-28T03:18:33.100Z,99.99
2018-04-28T03:28:33.137Z,99.99
2018-04-28T03:38:33.108Z,99.99
2018-04-28T03:48:33.130Z,99.99
2018-04-28T03:58:34.209Z,99.99
2018-04-28T04:08:34.186Z,99.99
2018-04-28T04:18:33.169Z,99.99
2018-04-28T04:28:33.187Z,99.99
2018-04-28T04:38:33.185Z,99.99
2018-04-28T04:48:33.259Z,99.99
2018-04-28T04:58:33.189Z,99.99
2018-04-28T05:08:33.218Z,99.99
2018-04-28T05:18:33.206Z,99.99
2018-04-28T05:28:33.238Z,99.99
2018-04-28T05:38:33.249Z,99.99
2018-04-28T05:48:33.240Z,99.99
2018-04-28T05:58:33.260Z,99.99
2018-04-28T06:08:33.276Z,99.99
2018-04-28T06:18:33.690Z,99.99
2018-04-28T06:28:33.296Z,95.46
2018-04-28T06:38:33.288Z,93.35
2018-04-28T06:48:33.315Z,87.5
2018-04-28T06:58:33.356Z,87.88
2018-04-28T07:08:33.298Z,83.71
2018-04-28T07:18:33.322Z,78.09
2018-04-28T07:48:33.397Z,66.52
2018-04-28T07:58:33.665Z,71.24
2018-04-28T08:28:33.331Z,77.84
2018-04-28T08:48:33.363Z,78.77
2018-04-28T09:28:33.365Z,71.64
2018-04-28T09:38:33.398Z,71.94
2018-04-28T09:48:34.045Z,73.73
2018-04-28T09:58:33.401Z,74.27
2018-04-28T10:18:34.318Z,75.57
2018-04-28T10:28:33.389Z,75.71
2018-04-28T10:38:33.459Z,74.04
2018-04-28T10:48:33.489Z,74.55
2018-04-28T10:58:33.355Z,75.23
2018-04-28T11:08:33.366Z,73.27
2018-04-28T11:18:33.359Z,72
2018-04-28T11:28:33.363Z,74.73
2018-04-28T11:38:33.511Z,73.11
2018-04-28T11:48:33.347Z,72.77
2018-04-28T11:58:33.431Z,70.65
2018-04-28T12:08:33.349Z,72.61
2018-04-28T12:18:33.378Z,73.54
2018-04-28T12:28:33.366Z,76.67
2018-04-28T12:38:39.972Z,72.5
2018-04-28T12:48:33.513Z,74.6
2018-04-28T12:58:33.366Z,76.29
2018-04-28T13:08:33.718Z,74.71
2018-04-28T13:18:33.550Z,74.81
2018-04-28T13:28:33.375Z,72.69
2018-04-28T13:38:33.392Z,72.44
2018-04-28T13:48:33.412Z,67.77
2018-04-28T13:58:33.523Z,68.15
2018-04-28T14:38:33.396Z,59.69
2018-04-28T14:48:33.385Z,58.57
2018-04-28T14:58:33.373Z,59.2
2018-04-28T15:08:33.407Z,58.89
2018-04-28T15:28:33.412Z,61.71
2018-04-28T15:38:33.373Z,62.19
2018-04-28T15:48:33.418Z,62.1
2018-04-28T16:08:33.410Z,65.81
2018-04-28T16:18:33.408Z,67.41
2018-04-28T16:28:33.404Z,68.37
2018-04-28T16:48:33.407Z,69.72
2018-04-28T16:58:33.408Z,70.74
2018-04-28T17:28:33.400Z,73.58
2018-04-28T17:38:34.325Z,74.22
2018-04-28T18:08:33.421Z,81.37
2018-04-28T18:18:33.431Z,82
2018-04-28T18:28:33.409Z,83.15
2018-04-28T18:58:33.425Z,92.25
2018-04-28T19:08:37.047Z,94.55
2018-04-28T19:58:33.372Z,99.99
2018-04-28T20:38:33.436Z,99.99
2018-04-28T20:48:33.498Z,99.99
2018-04-28T21:38:33.497Z,99.99
2018-04-28T21:48:33.488Z,99.99
2018-04-28T21:58:33.495Z,99.99
2018-04-28T22:08:33.679Z,99.99
2018-04-28T22:28:33.524Z,99.99
2018-04-28T22:38:33.535Z,99.99
2018-04-28T22:58:33.548Z,99.99
2018-04-28T23:08:34.630Z,99.99
2018-04-28T23:18:44.301Z,99.99
2018-04-28T23:28:33.655Z,99.99
2018-04-28T23:38:33.604Z,99.99
